sensor_id;sensor_type;location;lat;lon;timestamp;P1;durP1;ratioP1;P2;durP2;ratioP2
39822;SDS011;25499;53.958;10.970;2022-12-18T07:05:12;37.05;;;13.93;;
39822;SDS011;25499;53.958;10.970;2022-12-18T07:07:37;34.47;;;12.35;;
39822;SDS011;25499;53.958;10.970;2022-12-18T07:10:03;32.92;;;12.20;;
39822;SDS011;25499;53.958;10.970;2022-12-18T07:12:29;36.45;;;11.98;;
39822;SDS011;25499;53.958;10.970;2022-12-18T07:14:54;35.65;;;11.68;;
39822;SDS011;25499;53.958;10.970;2022-12-18T07:17:19;36.95;;;12.85;;
39822;SDS011;25499;53.958;10.970;2022-12-18T07:22:15;35.22;;;11.70;;
39822;SDS011;25499;53.958;10.970;2022-12-18T07:24:41;32.25;;;11.77;;
39822;SDS011;25499;53.958;10.970;2022-12-18T07:27:06;33.45;;;12.05;;
39822;SDS011;25499;53.958;10.970;2022-12-18T07:29:32;38.17;;;10.65;;
39822;SDS011;25499;53.958;10.970;2022-12-18T07:31:57;39.15;;;11.15;;
39822;SDS011;25499;53.958;10.970;2022-12-18T07:34:22;33.10;;;10.45;;
39822;SDS011;25499;53.958;10.970;2022-12-18T07:36:48;31.98;;;10.27;;
39822;SDS011;25499;53.958;10.970;2022-12-18T07:39:13;30.55;;;10.45;;
39822;SDS011;25499;53.958;10.970;2022-12-18T07:41:38;32.20;;;12.02;;
39822;SDS011;25499;53.958;10.970;2022-12-18T07:44:09;35.67;;;12.43;;
39822;SDS011;25499;53.958;10.970;2022-12-18T07:46:35;32.30;;;10.65;;
39822;SDS011;25499;53.958;10.970;2022-12-18T07:49:00;31.92;;;10.48;;
39822;SDS011;25499;53.958;10.970;2022-12-18T07:51:26;31.50;;;11.45;;
39822;SDS011;25499;53.958;10.970;2022-12-18T07:53:51;35.78;;;11.13;;
39822;SDS011;25499;53.958;10.970;2022-12-18T07:56:17;36.85;;;12.07;;
39822;SDS011;25499;53.958;10.970;2022-12-18T07:58:42;36.10;;;9.65;;
39822;SDS011;25499;53.958;10.970;2022-12-18T08:01:10;22.63;;;7.60;;
39822;SDS011;25499;53.958;10.970;2022-12-18T08:03:37;24.95;;;7.97;;
39822;SDS011;25499;53.958;10.970;2022-12-18T08:06:04;18.65;;;6.93;;
39822;SDS011;25499;53.958;10.970;2022-12-18T08:08:31;32.92;;;10.57;;
39822;SDS011;25499;53.958;10.970;2022-12-18T08:10:57;32.47;;;11.25;;
39822;SDS011;25499;53.958;10.970;2022-12-18T08:13:23;33.03;;;10.73;;
39822;SDS011;25499;53.958;10.970;2022-12-18T08:16:02;40.15;;;12.18;;
39822;SDS011;25499;53.958;10.970;2022-12-18T08:18:32;23.20;;;8.43;;
39822;SDS011;25499;53.958;10.970;2022-12-18T08:21:02;29.63;;;10.30;;
39822;SDS011;25499;53.958;10.970;2022-12-18T08:23:34;19.45;;;7.68;;
39822;SDS011;25499;53.958;10.970;2022-12-18T08:25:59;29.58;;;9.82;;
39822;SDS011;25499;53.958;10.970;2022-12-18T08:28:25;27.92;;;9.43;;
39822;SDS011;25499;53.958;10.970;2022-12-18T08:30:51;32.03;;;11.50;;
39822;SDS011;25499;53.958;10.970;2022-12-18T08:33:17;33.20;;;11.05;;
39822;SDS011;25499;53.958;10.970;2022-12-18T08:35:43;32.10;;;11.25;;
39822;SDS011;25499;53.958;10.970;2022-12-18T08:38:08;37.05;;;12.60;;
39822;SDS011;25499;53.958;10.970;2022-12-18T08:40:33;34.00;;;12.02;;
39822;SDS011;25499;53.958;10.970;2022-12-18T08:42:59;39.72;;;13.10;;
39822;SDS011;25499;53.958;10.970;2022-12-18T08:45:43;46.60;;;13.18;;
39822;SDS011;25499;53.958;10.970;2022-12-18T08:48:08;42.35;;;12.43;;
39822;SDS011;25499;53.958;10.970;2022-12-18T08:50:34;42.88;;;11.13;;
39822;SDS011;25499;53.958;10.970;2022-12-18T08:52:59;45.38;;;14.43;;
39822;SDS011;25499;53.958;10.970;2022-12-18T08:55:25;47.67;;;15.95;;
39822;SDS011;25499;53.958;10.970;2022-12-18T08:57:51;48.60;;;15.60;;
39822;SDS011;25499;53.958;10.970;2022-12-18T09:00:16;55.05;;;18.42;;
39822;SDS011;25499;53.958;10.970;2022-12-18T09:02:42;43.30;;;15.95;;
39822;SDS011;25499;53.958;10.970;2022-12-18T09:05:07;33.08;;;12.32;;
39822;SDS011;25499;53.958;10.970;2022-12-18T09:07:33;38.47;;;12.85;;
39822;SDS011;25499;53.958;10.970;2022-12-18T09:09:58;35.97;;;11.13;;
39822;SDS011;25499;53.958;10.970;2022-12-18T09:12:25;33.20;;;12.05;;
39822;SDS011;25499;53.958;10.970;2022-12-18T09:14:50;41.85;;;14.15;;
39822;SDS011;25499;53.958;10.970;2022-12-18T09:17:16;34.13;;;11.27;;
39822;SDS011;25499;53.958;10.970;2022-12-18T09:19:41;34.10;;;11.50;;
39822;SDS011;25499;53.958;10.970;2022-12-18T09:22:06;29.58;;;11.07;;
39822;SDS011;25499;53.958;10.970;2022-12-18T09:24:33;31.00;;;11.05;;
39822;SDS011;25499;53.958;10.970;2022-12-18T09:26:58;28.33;;;11.18;;
39822;SDS011;25499;53.958;10.970;2022-12-18T09:29:24;28.77;;;9.73;;
39822;SDS011;25499;53.958;10.970;2022-12-18T09:31:49;31.40;;;11.10;;
39822;SDS011;25499;53.958;10.970;2022-12-18T09:34:15;31.02;;;10.85;;
39822;SDS011;25499;53.958;10.970;2022-12-18T09:36:41;32.17;;;11.65;;
39822;SDS011;25499;53.958;10.970;2022-12-18T09:39:07;31.05;;;11.68;;
39822;SDS011;25499;53.958;10.970;2022-12-18T09:41:40;33.00;;;12.27;;
39822;SDS011;25499;53.958;10.970;2022-12-18T09:55:22;29.65;;;10.15;;
39822;SDS011;25499;53.958;10.970;2022-12-18T09:57:59;26.58;;;9.73;;
39822;SDS011;25499;53.958;10.970;2022-12-18T10:00:30;30.10;;;11.02;;
39822;SDS011;25499;53.958;10.970;2022-12-18T10:03:00;25.35;;;10.23;;
39822;SDS011;25499;53.958;10.970;2022-12-18T10:08:13;26.20;;;10.13;;
39822;SDS011;25499;53.958;10.970;2022-12-18T10:11:01;28.17;;;10.93;;
39822;SDS011;25499;53.958;10.970;2022-12-18T10:13:46;24.08;;;10.82;;
39822;SDS011;25499;53.958;10.970;2022-12-18T10:16:25;26.52;;;11.50;;
39822;SDS011;25499;53.958;10.970;2022-12-18T10:26:37;26.98;;;10.90;;
39822;SDS011;25499;53.958;10.970;2022-12-18T10:29:06;28.30;;;11.18;;
39822;SDS011;25499;53.958;10.970;2022-12-18T10:31:36;29.38;;;11.75;;
39822;SDS011;25499;53.958;10.970;2022-12-18T10:34:01;26.77;;;11.77;;
39822;SDS011;25499;53.958;10.970;2022-12-18T10:36:26;24.55;;;10.18;;
39822;SDS011;25499;53.958;10.970;2022-12-18T10:38:52;32.67;;;12.52;;
39822;SDS011;25499;53.958;10.970;2022-12-18T10:43:43;19.65;;;6.68;;
39822;SDS011;25499;53.958;10.970;2022-12-18T10:51:19;28.40;;;10.75;;
39822;SDS011;25499;53.958;10.970;2022-12-18T10:53:57;25.75;;;9.90;;
39822;SDS011;25499;53.958;10.970;2022-12-18T10:56:26;26.23;;;10.07;;
39822;SDS011;25499;53.958;10.970;2022-12-18T10:59:07;30.17;;;11.40;;
39822;SDS011;25499;53.958;10.970;2022-12-18T11:01:47;30.08;;;12.02;;
39822;SDS011;25499;53.958;10.970;2022-12-18T11:04:25;27.40;;;11.88;;
39822;SDS011;25499;53.958;10.970;2022-12-18T11:09:35;29.80;;;11.00;;
39822;SDS011;25499;53.958;10.970;2022-12-18T11:12:03;32.17;;;10.95;;
39822;SDS011;25499;53.958;10.970;2022-12-18T11:14:46;32.78;;;11.38;;
39822;SDS011;25499;53.958;10.970;2022-12-18T11:19:52;30.15;;;11.43;;
39822;SDS011;25499;53.958;10.970;2022-12-18T11:22:29;27.70;;;11.52;;
39822;SDS011;25499;53.958;10.970;2022-12-18T11:27:22;31.45;;;12.05;;
39822;SDS011;25499;53.958;10.970;2022-12-18T11:29:48;26.23;;;10.10;;
39822;SDS011;25499;53.958;10.970;2022-12-18T11:34:45;29.08;;;10.98;;
39822;SDS011;25499;53.958;10.970;2022-12-18T11:37:13;18.55;;;6.82;;
39822;SDS011;25499;53.958;10.970;2022-12-18T11:39:54;31.67;;;11.82;;
39822;SDS011;25499;53.958;10.970;2022-12-18T11:42:27;32.35;;;9.57;;
39822;SDS011;25499;53.958;10.970;2022-12-18T11:45:02;20.30;;;7.68;;
39822;SDS011;25499;53.958;10.970;2022-12-18T11:47:44;30.95;;;12.35;;
39822;SDS011;25499;53.958;10.970;2022-12-18T11:50:16;30.00;;;12.65;;
39822;SDS011;25499;53.958;10.970;2022-12-18T11:52:44;33.50;;;12.38;;
39822;SDS011;25499;53.958;10.970;2022-12-18T11:55:31;30.83;;;12.90;;
39822;SDS011;25499;53.958;10.970;2022-12-18T12:00:56;34.30;;;12.50;;
39822;SDS011;25499;53.958;10.970;2022-12-18T12:12:54;35.10;;;13.65;;
39822;SDS011;25499;53.958;10.970;2022-12-18T12:25:50;37.85;;;12.80;;
39822;SDS011;25499;53.958;10.970;2022-12-18T12:33:46;39.90;;;14.35;;
39822;SDS011;25499;53.958;10.970;2022-12-18T12:36:42;35.17;;;12.85;;
39822;SDS011;25499;53.958;10.970;2022-12-18T12:39:11;35.10;;;13.13;;
39822;SDS011;25499;53.958;10.970;2022-12-18T12:41:42;33.42;;;12.02;;
39822;SDS011;25499;53.958;10.970;2022-12-18T12:44:40;34.38;;;12.75;;
39822;SDS011;25499;53.958;10.970;2022-12-18T12:47:16;29.10;;;9.98;;
39822;SDS011;25499;53.958;10.970;2022-12-18T12:49:46;36.33;;;13.30;;
39822;SDS011;25499;53.958;10.970;2022-12-18T12:52:24;34.40;;;12.88;;
39822;SDS011;25499;53.958;10.970;2022-12-18T12:55:05;35.30;;;12.65;;
39822;SDS011;25499;53.958;10.970;2022-12-18T12:57:39;43.25;;;14.60;;
39822;SDS011;25499;53.958;10.970;2022-12-18T13:00:12;36.78;;;12.55;;
39822;SDS011;25499;53.958;10.970;2022-12-18T13:08:26;38.15;;;13.30;;
39822;SDS011;25499;53.958;10.970;2022-12-18T13:10:53;36.55;;;12.73;;
39822;SDS011;25499;53.958;10.970;2022-12-18T13:13:55;35.90;;;13.23;;
39822;SDS011;25499;53.958;10.970;2022-12-18T13:16:24;35.85;;;13.00;;
39822;SDS011;25499;53.958;10.970;2022-12-18T13:18:53;38.20;;;12.63;;
39822;SDS011;25499;53.958;10.970;2022-12-18T13:21:24;41.03;;;13.48;;
39822;SDS011;25499;53.958;10.970;2022-12-18T13:23:53;33.55;;;12.70;;
39822;SDS011;25499;53.958;10.970;2022-12-18T13:31:10;32.63;;;11.35;;
39822;SDS011;25499;53.958;10.970;2022-12-18T13:33:40;34.40;;;12.18;;
39822;SDS011;25499;53.958;10.970;2022-12-18T13:38:47;38.92;;;13.30;;
39822;SDS011;25499;53.958;10.970;2022-12-18T13:41:39;32.45;;;10.77;;
39822;SDS011;25499;53.958;10.970;2022-12-18T13:46:54;36.85;;;12.30;;
39822;SDS011;25499;53.958;10.970;2022-12-18T13:51:50;35.38;;;11.50;;
39822;SDS011;25499;53.958;10.970;2022-12-18T13:57:02;37.95;;;13.20;;
39822;SDS011;25499;53.958;10.970;2022-12-18T13:59:37;35.90;;;12.40;;
39822;SDS011;25499;53.958;10.970;2022-12-18T14:02:13;39.45;;;12.05;;
39822;SDS011;25499;53.958;10.970;2022-12-18T14:04:46;35.80;;;12.90;;
39822;SDS011;25499;53.958;10.970;2022-12-18T14:07:20;37.80;;;12.60;;
39822;SDS011;25499;53.958;10.970;2022-12-18T14:09:49;37.60;;;13.02;;
39822;SDS011;25499;53.958;10.970;2022-12-18T14:12:33;36.78;;;11.75;;
39822;SDS011;25499;53.958;10.970;2022-12-18T14:17:54;40.92;;;13.07;;
39822;SDS011;25499;53.958;10.970;2022-12-18T14:20:24;34.75;;;12.90;;
39822;SDS011;25499;53.958;10.970;2022-12-18T14:22:50;38.55;;;12.68;;
39822;SDS011;25499;53.958;10.970;2022-12-18T14:25:18;37.38;;;13.05;;
39822;SDS011;25499;53.958;10.970;2022-12-18T14:27:47;26.73;;;9.93;;
39822;SDS011;25499;53.958;10.970;2022-12-18T14:30:28;46.05;;;14.68;;
39822;SDS011;25499;53.958;10.970;2022-12-18T14:33:04;24.50;;;7.53;;
39822;SDS011;25499;53.958;10.970;2022-12-18T14:35:42;31.92;;;11.93;;
39822;SDS011;25499;53.958;10.970;2022-12-18T14:40:47;37.58;;;13.20;;
39822;SDS011;25499;53.958;10.970;2022-12-18T14:43:20;36.38;;;13.60;;
39822;SDS011;25499;53.958;10.970;2022-12-18T14:45:46;39.13;;;13.63;;
39822;SDS011;25499;53.958;10.970;2022-12-18T14:48:16;42.72;;;15.20;;
39822;SDS011;25499;53.958;10.970;2022-12-18T14:50:44;40.55;;;14.68;;
39822;SDS011;25499;53.958;10.970;2022-12-18T14:53:20;37.85;;;14.10;;
39822;SDS011;25499;53.958;10.970;2022-12-18T14:55:53;43.20;;;14.50;;
39822;SDS011;25499;53.958;10.970;2022-12-18T14:58:19;40.67;;;14.50;;
39822;SDS011;25499;53.958;10.970;2022-12-18T15:00:44;36.72;;;13.98;;
39822;SDS011;25499;53.958;10.970;2022-12-18T15:03:12;39.17;;;14.57;;
39822;SDS011;25499;53.958;10.970;2022-12-18T15:05:43;39.15;;;14.55;;
39822;SDS011;25499;53.958;10.970;2022-12-18T15:08:29;41.42;;;14.05;;
39822;SDS011;25499;53.958;10.970;2022-12-18T15:10:59;45.10;;;14.55;;
39822;SDS011;25499;53.958;10.970;2022-12-18T15:13:25;38.65;;;14.68;;
39822;SDS011;25499;53.958;10.970;2022-12-18T15:15:50;37.55;;;13.63;;
39822;SDS011;25499;53.958;10.970;2022-12-18T15:18:18;37.13;;;12.90;;
39822;SDS011;25499;53.958;10.970;2022-12-18T15:23:19;34.20;;;13.43;;
39822;SDS011;25499;53.958;10.970;2022-12-18T15:25:45;37.28;;;12.57;;
39822;SDS011;25499;53.958;10.970;2022-12-18T15:28:19;42.83;;;13.60;;
39822;SDS011;25499;53.958;10.970;2022-12-18T15:30:59;36.20;;;12.90;;
39822;SDS011;25499;53.958;10.970;2022-12-18T15:33:25;39.13;;;13.88;;
39822;SDS011;25499;53.958;10.970;2022-12-18T15:35:58;25.42;;;10.63;;
39822;SDS011;25499;53.958;10.970;2022-12-18T15:38:25;41.95;;;14.85;;
39822;SDS011;25499;53.958;10.970;2022-12-18T15:40:52;46.05;;;14.48;;
39822;SDS011;25499;53.958;10.970;2022-12-18T15:43:19;35.88;;;13.02;;
39822;SDS011;25499;53.958;10.970;2022-12-18T15:45:59;39.83;;;14.13;;
39822;SDS011;25499;53.958;10.970;2022-12-18T15:48:25;39.15;;;14.48;;
39822;SDS011;25499;53.958;10.970;2022-12-18T15:50:52;36.83;;;14.50;;
39822;SDS011;25499;53.958;10.970;2022-12-18T15:53:22;42.55;;;14.65;;
39822;SDS011;25499;53.958;10.970;2022-12-18T15:55:48;41.97;;;16.83;;
39822;SDS011;25499;53.958;10.970;2022-12-18T15:58:32;41.25;;;14.63;;
39822;SDS011;25499;53.958;10.970;2022-12-18T16:00:58;41.00;;;15.32;;
39822;SDS011;25499;53.958;10.970;2022-12-18T16:03:25;31.05;;;11.13;;
39822;SDS011;25499;53.958;10.970;2022-12-18T16:05:50;34.60;;;13.23;;
39822;SDS011;25499;53.958;10.970;2022-12-18T16:08:16;36.60;;;15.05;;
39822;SDS011;25499;53.958;10.970;2022-12-18T16:10:41;36.78;;;14.80;;
39822;SDS011;25499;53.958;10.970;2022-12-18T16:13:09;43.38;;;15.88;;
39822;SDS011;25499;53.958;10.970;2022-12-18T16:15:36;46.65;;;16.20;;
39822;SDS011;25499;53.958;10.970;2022-12-18T16:18:02;39.95;;;15.05;;
39822;SDS011;25499;53.958;10.970;2022-12-18T16:20:27;47.28;;;16.58;;
39822;SDS011;25499;53.958;10.970;2022-12-18T16:22:52;44.50;;;16.13;;
39822;SDS011;25499;53.958;10.970;2022-12-18T16:25:22;38.20;;;13.93;;
39822;SDS011;25499;53.958;10.970;2022-12-18T16:27:50;34.15;;;12.63;;
39822;SDS011;25499;53.958;10.970;2022-12-18T16:30:17;35.60;;;12.98;;
39822;SDS011;25499;53.958;10.970;2022-12-18T16:32:44;36.20;;;13.75;;
39822;SDS011;25499;53.958;10.970;2022-12-18T16:35:13;34.97;;;13.73;;
39822;SDS011;25499;53.958;10.970;2022-12-18T16:37:40;35.20;;;13.20;;
39822;SDS011;25499;53.958;10.970;2022-12-18T16:40:07;37.92;;;13.73;;
39822;SDS011;25499;53.958;10.970;2022-12-18T16:42:35;34.10;;;12.85;;
39822;SDS011;25499;53.958;10.970;2022-12-18T16:45:02;31.13;;;13.15;;
39822;SDS011;25499;53.958;10.970;2022-12-18T16:47:28;30.58;;;12.57;;
39822;SDS011;25499;53.958;10.970;2022-12-18T16:49:53;31.38;;;12.25;;
39822;SDS011;25499;53.958;10.970;2022-12-18T16:52:19;31.00;;;12.25;;
39822;SDS011;25499;53.958;10.970;2022-12-18T16:54:45;36.40;;;12.68;;
39822;SDS011;25499;53.958;10.970;2022-12-18T16:57:12;33.05;;;13.30;;
39822;SDS011;25499;53.958;10.970;2022-12-18T16:59:39;32.85;;;11.88;;
39822;SDS011;25499;53.958;10.970;2022-12-18T17:02:04;39.42;;;13.77;;
39822;SDS011;25499;53.958;10.970;2022-12-18T17:04:35;30.42;;;12.63;;
39822;SDS011;25499;53.958;10.970;2022-12-18T17:07:00;29.52;;;12.27;;
39822;SDS011;25499;53.958;10.970;2022-12-18T17:09:26;31.38;;;12.63;;
39822;SDS011;25499;53.958;10.970;2022-12-18T17:11:52;29.58;;;11.13;;
39822;SDS011;25499;53.958;10.970;2022-12-18T17:14:18;24.92;;;10.85;;
39822;SDS011;25499;53.958;10.970;2022-12-18T17:16:45;29.02;;;13.43;;
39822;SDS011;25499;53.958;10.970;2022-12-18T17:19:12;30.20;;;12.30;;
39822;SDS011;25499;53.958;10.970;2022-12-18T17:21:40;29.05;;;12.77;;
39822;SDS011;25499;53.958;10.970;2022-12-18T17:24:05;27.98;;;11.23;;
39822;SDS011;25499;53.958;10.970;2022-12-18T17:26:31;31.48;;;12.68;;
39822;SDS011;25499;53.958;10.970;2022-12-18T17:28:57;31.83;;;12.23;;
39822;SDS011;25499;53.958;10.970;2022-12-18T17:31:24;31.27;;;13.07;;
39822;SDS011;25499;53.958;10.970;2022-12-18T17:33:51;27.40;;;12.20;;
39822;SDS011;25499;53.958;10.970;2022-12-18T17:36:17;33.03;;;13.05;;
39822;SDS011;25499;53.958;10.970;2022-12-18T17:38:49;30.80;;;12.27;;
39822;SDS011;25499;53.958;10.970;2022-12-18T17:41:18;28.58;;;12.77;;
39822;SDS011;25499;53.958;10.970;2022-12-18T17:43:44;31.35;;;12.88;;
39822;SDS011;25499;53.958;10.970;2022-12-18T17:46:18;25.52;;;11.73;;
39822;SDS011;25499;53.958;10.970;2022-12-18T17:48:44;27.77;;;12.05;;
39822;SDS011;25499;53.958;10.970;2022-12-18T17:51:10;26.98;;;12.15;;
39822;SDS011;25499;53.958;10.970;2022-12-18T17:53:36;31.27;;;12.27;;
39822;SDS011;25499;53.958;10.970;2022-12-18T17:56:05;27.98;;;12.15;;
39822;SDS011;25499;53.958;10.970;2022-12-18T17:58:32;29.23;;;12.57;;
39822;SDS011;25499;53.958;10.970;2022-12-18T18:01:00;32.63;;;11.57;;
39822;SDS011;25499;53.958;10.970;2022-12-18T18:03:25;31.75;;;13.52;;
39822;SDS011;25499;53.958;10.970;2022-12-18T18:05:55;33.53;;;13.68;;
39822;SDS011;25499;53.958;10.970;2022-12-18T18:08:21;34.58;;;12.52;;
39822;SDS011;25499;53.958;10.970;2022-12-18T18:10:47;31.40;;;12.45;;
39822;SDS011;25499;53.958;10.970;2022-12-18T18:13:17;28.38;;;11.23;;
39822;SDS011;25499;53.958;10.970;2022-12-18T18:16:05;31.33;;;12.57;;
39822;SDS011;25499;53.958;10.970;2022-12-18T18:18:31;28.83;;;12.82;;
39822;SDS011;25499;53.958;10.970;2022-12-18T18:20:57;29.23;;;12.77;;
39822;SDS011;25499;53.958;10.970;2022-12-18T18:23:22;31.90;;;11.68;;
39822;SDS011;25499;53.958;10.970;2022-12-18T18:25:51;33.50;;;13.40;;
39822;SDS011;25499;53.958;10.970;2022-12-18T18:28:16;30.17;;;12.98;;
39822;SDS011;25499;53.958;10.970;2022-12-18T18:30:41;31.50;;;12.30;;
39822;SDS011;25499;53.958;10.970;2022-12-18T18:33:07;30.73;;;12.85;;
39822;SDS011;25499;53.958;10.970;2022-12-18T18:35:32;32.03;;;13.65;;
39822;SDS011;25499;53.958;10.970;2022-12-18T18:37:58;31.40;;;12.32;;
39822;SDS011;25499;53.958;10.970;2022-12-18T18:40:23;27.25;;;11.95;;
39822;SDS011;25499;53.958;10.970;2022-12-18T18:42:48;31.38;;;12.90;;
39822;SDS011;25499;53.958;10.970;2022-12-18T18:45:14;27.63;;;12.52;;
39822;SDS011;25499;53.958;10.970;2022-12-18T18:47:39;32.67;;;13.45;;
39822;SDS011;25499;53.958;10.970;2022-12-18T18:50:05;35.95;;;15.00;;
39822;SDS011;25499;53.958;10.970;2022-12-18T18:52:31;31.05;;;13.27;;
39822;SDS011;25499;53.958;10.970;2022-12-18T18:54:56;31.20;;;13.23;;
39822;SDS011;25499;53.958;10.970;2022-12-18T18:57:22;30.90;;;13.13;;
39822;SDS011;25499;53.958;10.970;2022-12-18T18:59:47;27.23;;;12.13;;
39822;SDS011;25499;53.958;10.970;2022-12-18T19:02:13;30.92;;;12.63;;
39822;SDS011;25499;53.958;10.970;2022-12-18T19:04:39;31.10;;;12.20;;
39822;SDS011;25499;53.958;10.970;2022-12-18T19:07:05;29.90;;;13.32;;
39822;SDS011;25499;53.958;10.970;2022-12-18T19:09:31;30.98;;;12.52;;
39822;SDS011;25499;53.958;10.970;2022-12-18T19:11:57;28.98;;;11.93;;
39822;SDS011;25499;53.958;10.970;2022-12-18T19:14:41;26.20;;;11.48;;
39822;SDS011;25499;53.958;10.970;2022-12-18T19:17:07;28.02;;;12.65;;
39822;SDS011;25499;53.958;10.970;2022-12-18T19:19:33;31.35;;;12.82;;
39822;SDS011;25499;53.958;10.970;2022-12-18T19:21:58;29.00;;;12.88;;
39822;SDS011;25499;53.958;10.970;2022-12-18T19:24:25;28.13;;;12.43;;
39822;SDS011;25499;53.958;10.970;2022-12-18T19:26:51;29.00;;;11.70;;
39822;SDS011;25499;53.958;10.970;2022-12-18T19:29:17;32.60;;;12.32;;
39822;SDS011;25499;53.958;10.970;2022-12-18T19:31:43;29.33;;;12.10;;
39822;SDS011;25499;53.958;10.970;2022-12-18T19:34:09;25.83;;;11.63;;
39822;SDS011;25499;53.958;10.970;2022-12-18T19:36:37;28.35;;;11.73;;
39822;SDS011;25499;53.958;10.970;2022-12-18T19:39:08;24.30;;;11.18;;
39822;SDS011;25499;53.958;10.970;2022-12-18T19:41:36;27.98;;;11.70;;
39822;SDS011;25499;53.958;10.970;2022-12-18T19:44:02;28.10;;;11.88;;
39822;SDS011;25499;53.958;10.970;2022-12-18T19:46:27;26.88;;;10.75;;
39822;SDS011;25499;53.958;10.970;2022-12-18T19:48:53;31.13;;;12.60;;
39822;SDS011;25499;53.958;10.970;2022-12-18T19:51:20;29.55;;;12.57;;
39822;SDS011;25499;53.958;10.970;2022-12-18T19:53:47;30.05;;;12.48;;
39822;SDS011;25499;53.958;10.970;2022-12-18T19:56:14;28.25;;;12.73;;
39822;SDS011;25499;53.958;10.970;2022-12-18T19:58:41;25.63;;;10.52;;
39822;SDS011;25499;53.958;10.970;2022-12-18T20:01:07;27.50;;;12.20;;
39822;SDS011;25499;53.958;10.970;2022-12-18T20:03:34;28.58;;;12.32;;
39822;SDS011;25499;53.958;10.970;2022-12-18T20:08:39;29.00;;;12.00;;
39822;SDS011;25499;53.958;10.970;2022-12-18T20:11:05;31.40;;;11.88;;
39822;SDS011;25499;53.958;10.970;2022-12-18T20:13:30;23.08;;;10.27;;
39822;SDS011;25499;53.958;10.970;2022-12-18T20:15:56;23.90;;;11.52;;
39822;SDS011;25499;53.958;10.970;2022-12-18T20:18:21;24.75;;;9.45;;
39822;SDS011;25499;53.958;10.970;2022-12-18T20:20:47;23.45;;;10.15;;
39822;SDS011;25499;53.958;10.970;2022-12-18T20:23:12;22.00;;;6.65;;
39822;SDS011;25499;53.958;10.970;2022-12-18T20:25:38;31.25;;;12.90;;
39822;SDS011;25499;53.958;10.970;2022-12-18T20:28:03;32.53;;;12.23;;
39822;SDS011;25499;53.958;10.970;2022-12-18T20:30:29;24.10;;;10.70;;
39822;SDS011;25499;53.958;10.970;2022-12-18T20:32:55;30.20;;;12.90;;
39822;SDS011;25499;53.958;10.970;2022-12-18T20:35:20;32.00;;;12.18;;
39822;SDS011;25499;53.958;10.970;2022-12-18T20:37:46;28.63;;;11.82;;
39822;SDS011;25499;53.958;10.970;2022-12-18T20:40:11;28.83;;;12.55;;
39822;SDS011;25499;53.958;10.970;2022-12-18T20:42:37;31.67;;;13.60;;
39822;SDS011;25499;53.958;10.970;2022-12-18T20:45:03;24.55;;;10.48;;
39822;SDS011;25499;53.958;10.970;2022-12-18T20:47:29;27.10;;;12.98;;
39822;SDS011;25499;53.958;10.970;2022-12-18T20:49:54;31.58;;;12.48;;
39822;SDS011;25499;53.958;10.970;2022-12-18T20:52:20;24.00;;;11.02;;
39822;SDS011;25499;53.958;10.970;2022-12-18T20:54:46;29.05;;;11.68;;
39822;SDS011;25499;53.958;10.970;2022-12-18T20:57:11;22.45;;;10.30;;
39822;SDS011;25499;53.958;10.970;2022-12-18T20:59:37;30.50;;;12.30;;
39822;SDS011;25499;53.958;10.970;2022-12-18T21:02:02;27.98;;;13.27;;
39822;SDS011;25499;53.958;10.970;2022-12-18T21:04:28;27.83;;;12.80;;
39822;SDS011;25499;53.958;10.970;2022-12-18T21:06:53;31.75;;;10.40;;
39822;SDS011;25499;53.958;10.970;2022-12-18T21:09:19;24.85;;;10.23;;
39822;SDS011;25499;53.958;10.970;2022-12-18T21:11:44;26.48;;;11.85;;
39822;SDS011;25499;53.958;10.970;2022-12-18T21:14:29;30.58;;;12.07;;
39822;SDS011;25499;53.958;10.970;2022-12-18T21:16:55;26.30;;;11.27;;
39822;SDS011;25499;53.958;10.970;2022-12-18T21:19:22;29.77;;;11.65;;
39822;SDS011;25499;53.958;10.970;2022-12-18T21:21:49;26.67;;;11.20;;
39822;SDS011;25499;53.958;10.970;2022-12-18T21:24:16;26.98;;;12.25;;
39822;SDS011;25499;53.958;10.970;2022-12-18T21:26:42;27.63;;;9.50;;
39822;SDS011;25499;53.958;10.970;2022-12-18T21:29:12;29.25;;;12.30;;
39822;SDS011;25499;53.958;10.970;2022-12-18T21:31:44;35.60;;;13.43;;
39822;SDS011;25499;53.958;10.970;2022-12-18T21:34:13;25.27;;;10.55;;
39822;SDS011;25499;53.958;10.970;2022-12-18T21:36:40;29.45;;;13.32;;
39822;SDS011;25499;53.958;10.970;2022-12-18T21:39:06;29.30;;;13.15;;
39822;SDS011;25499;53.958;10.970;2022-12-18T21:41:32;28.90;;;12.90;;
39822;SDS011;25499;53.958;10.970;2022-12-18T21:44:16;28.48;;;12.43;;
39822;SDS011;25499;53.958;10.970;2022-12-18T21:46:44;30.90;;;12.60;;
39822;SDS011;25499;53.958;10.970;2022-12-18T21:49:11;27.45;;;12.77;;
39822;SDS011;25499;53.958;10.970;2022-12-18T21:51:45;27.90;;;11.93;;
39822;SDS011;25499;53.958;10.970;2022-12-18T21:54:11;28.50;;;12.68;;
39822;SDS011;25499;53.958;10.970;2022-12-18T21:59:09;26.70;;;12.77;;
39822;SDS011;25499;53.958;10.970;2022-12-18T22:01:34;27.48;;;12.85;;
39822;SDS011;25499;53.958;10.970;2022-12-18T22:04:00;24.83;;;10.82;;
39822;SDS011;25499;53.958;10.970;2022-12-18T22:06:25;20.15;;;8.05;;
39822;SDS011;25499;53.958;10.970;2022-12-18T22:08:50;28.33;;;12.57;;
39822;SDS011;25499;53.958;10.970;2022-12-18T22:11:16;28.08;;;12.20;;
39822;SDS011;25499;53.958;10.970;2022-12-18T22:13:41;26.58;;;11.32;;
39822;SDS011;25499;53.958;10.970;2022-12-18T22:16:07;28.25;;;12.25;;
39822;SDS011;25499;53.958;10.970;2022-12-18T22:18:32;22.08;;;10.18;;
39822;SDS011;25499;53.958;10.970;2022-12-18T22:21:01;29.15;;;12.27;;
39822;SDS011;25499;53.958;10.970;2022-12-18T22:23:28;28.17;;;10.93;;
39822;SDS011;25499;53.958;10.970;2022-12-18T22:25:53;24.35;;;11.40;;
39822;SDS011;25499;53.958;10.970;2022-12-18T22:28:19;22.05;;;9.25;;
39822;SDS011;25499;53.958;10.970;2022-12-18T22:31:03;24.67;;;10.73;;
39822;SDS011;25499;53.958;10.970;2022-12-18T22:33:29;24.33;;;11.13;;
39822;SDS011;25499;53.958;10.970;2022-12-18T22:35:54;25.83;;;11.55;;
39822;SDS011;25499;53.958;10.970;2022-12-18T22:38:19;24.58;;;10.98;;
39822;SDS011;25499;53.958;10.970;2022-12-18T22:40:45;30.67;;;10.75;;
39822;SDS011;25499;53.958;10.970;2022-12-18T22:43:10;19.60;;;8.40;;
39822;SDS011;25499;53.958;10.970;2022-12-18T22:45:35;20.58;;;8.88;;
39822;SDS011;25499;53.958;10.970;2022-12-18T22:48:01;26.40;;;10.15;;
39822;SDS011;25499;53.958;10.970;2022-12-18T22:50:26;23.83;;;10.32;;
39822;SDS011;25499;53.958;10.970;2022-12-18T22:52:52;24.23;;;11.30;;
39822;SDS011;25499;53.958;10.970;2022-12-18T22:55:17;19.50;;;8.23;;
39822;SDS011;25499;53.958;10.970;2022-12-18T23:00:10;21.98;;;9.27;;
39822;SDS011;25499;53.958;10.970;2022-12-18T23:02:37;27.75;;;11.95;;
39822;SDS011;25499;53.958;10.970;2022-12-18T23:05:02;16.25;;;7.15;;
39822;SDS011;25499;53.958;10.970;2022-12-18T23:07:31;21.00;;;9.02;;
39822;SDS011;25499;53.958;10.970;2022-12-18T23:09:56;22.52;;;10.50;;